Air Resources Laboratory banner image
Air Resources Laboratory web site National Oceanic and Atmospheric Administration (NOAA)

mo metar


KCDJ 110452Z AUTO 00000KT 20/19 A3018 RMK AO1 SLP211 T02000189=
KCGI 110453Z AUTO 28004KT 10SM CLR 19/19 A3011 RMK AO2 SLP192 T01890189=
KCOU 110454Z AUTO 09003KT 10SM CLR 22/17 A3018 RMK AO2 SLP210 T02170167=
KDMO 110453Z AUTO 00000KT 10SM CLR 22/17 A3018 RMK AO2 SLP212 T02170167=
KFAM 110456Z AUTO 00000KT 10SM CLR 18/16 A3017 RMK AO2 SLP220 T01830161=
KGVW 110440Z AUTO VRB03KT 10SM CLR 28/24 A3004 RMK A01=
KIRK 110455Z AUTO 00000KT 10SM CLR 16/16 A3019 RMK AO2 SLP220 T01610156=
KJEF 110453Z AUTO 00000KT 10SM CLR 19/17 A3016 RMK AO2 SLP200 T01940167=
KJLN 110453Z AUTO 05005KT 10SM CLR 22/18 A3015 RMK AO2 SLP199 T02220183=
KMCI 110453Z 13006KT 10SM CLR 23/16 A3018 RMK AO2 SLP208 T02280156=
KMKC 110454Z 00000KT 10SM CLR 25/18 A3017 RMK AO2 SLP208 T02500178=
KPOF 110453Z AUTO 36003KT 10SM CLR 21/20 A3011 RMK AO2 SLP191 T02110200=
KSET 110454Z AUTO 00000KT 10SM CLR 19/17 A3015 RMK AO2 SLP204 T01940172=
KSGF 110452Z 06008KT 10SM CLR 22/17 A3016 RMK AO2 SLP198 T02220172=
KSTJ 110453Z AUTO 00000KT 10SM CLR 17/17 A3017 RMK AO2 SLP210 T01720172=
KSTL 110451Z 00000KT 10SM CLR 22/17 A3016 RMK AO2 SLP202 T02220167 $=
KSUS 110454Z 00000KT 10SM CLR 18/17 A3015 RMK AO2 SLP204 T01780172=
KSZL 110456Z 00000KT 10SM CLR 18/17 A3013 RMK AO2A SLP200 T01840167 $=
KTBN 110456Z AUTO 04003KT 10SM CLR 20/16 A3017 RMK AO2 SLP210 T02030163=
KUNO 110453Z AUTO 00000KT 10SM CLR 21/17 A3017 RMK AO2 SLP204 T02060172=